Time;durP1;ratioP1;P1;durP2;ratioP2;P2;SDS_P1;SDS_P2;PMS_P1;PMS_P2;Temp;Humidity;BMP_temperature;BMP_pressure;BME280_temperature;BME280_humidity;BME280_pressure;Samples;Min_cycle;Max_cycle;Signal;HPM_P1;HPM_P2
2023/07/14 00:00:32;;;;;;;20.92;8.98;;;;;;;;;;5046415;28;20627;-62
2023/07/14 00:03:00;;;;;;;13.80;8.30;;;;;;;;;;5045619;28;20203;-64
2023/07/14 00:05:29;;;;;;;16.75;8.43;;;;;;;;;;5046384;28;20203;-64
2023/07/14 00:07:55;;;;;;;17.85;9.95;;;;;;;;;;5045915;28;20260;-63
2023/07/14 00:10:24;;;;;;;12.93;9.30;;;;;;;;;;5045566;28;20917;-64
2023/07/14 00:12:51;;;;;;;15.05;7.97;;;;;;;;;;5045642;28;20211;-64
2023/07/14 00:15:18;;;;;;;11.88;8.23;;;;;;;;;;5046530;28;20207;-62
2023/07/14 00:17:46;;;;;;;12.48;8.63;;;;;;;;;;5045974;28;20203;-63
2023/07/14 00:20:24;;;;;;;14.65;8.32;;;;;;;;;;5046249;28;20203;-64
2023/07/14 00:22:51;;;;;;;10.95;8.65;;;;;;;;;;5045289;28;20203;-63
2023/07/14 00:25:17;;;;;;;13.85;8.68;;;;;;;;;;5045911;28;20226;-64
2023/07/14 00:27:44;;;;;;;11.25;8.82;;;;;;;;;;5046246;28;20261;-63
2023/07/14 00:30:14;;;;;;;14.73;9.82;;;;;;;;;;5045634;28;20227;-63
2023/07/14 00:32:41;;;;;;;11.93;8.63;;;;;;;;;;5044291;28;20198;-64
2023/07/14 00:35:16;;;;;;;10.80;8.80;;;;;;;;;;5044875;28;20692;-63
2023/07/14 00:37:43;;;;;;;12.52;8.15;;;;;;;;;;5045989;28;20230;-62
2023/07/14 00:40:12;;;;;;;12.40;8.77;;;;;;;;;;5045495;28;20770;-64
2023/07/14 00:42:40;;;;;;;17.67;9.82;;;;;;;;;;5045182;28;20288;-63
2023/07/14 00:45:10;;;;;;;13.57;8.75;;;;;;;;;;5046356;28;20214;-64
2023/07/14 00:47:36;;;;;;;11.52;8.40;;;;;;;;;;5045605;28;20215;-63
2023/07/14 00:50:03;;;;;;;12.40;8.80;;;;;;;;;;5045155;28;20226;-64
2023/07/14 00:52:33;;;;;;;12.27;8.43;;;;;;;;;;5045946;28;20214;-63
2023/07/14 00:55:00;;;;;;;17.65;9.23;;;;;;;;;;5045716;28;20294;-63
2023/07/14 00:57:27;;;;;;;16.05;8.98;;;;;;;;;;5046209;28;20199;-63
2023/07/14 00:59:57;;;;;;;11.05;7.85;;;;;;;;;;5045270;28;20742;-63
2023/07/14 01:02:24;;;;;;;10.85;8.30;;;;;;;;;;5045260;28;20284;-62
2023/07/14 01:04:54;;;;;;;13.73;8.57;;;;;;;;;;5045208;28;20295;-63
2023/07/14 01:07:23;;;;;;;10.23;8.45;;;;;;;;;;5044664;28;20720;-64
2023/07/14 01:09:52;;;;;;;10.88;8.85;;;;;;;;;;5045593;28;20227;-62
2023/07/14 01:12:20;;;;;;;15.23;9.93;;;;;;;;;;5046039;28;20281;-64
2023/07/14 01:14:48;;;;;;;11.25;9.90;;;;;;;;;;5045398;28;20202;-63
2023/07/14 01:17:14;;;;;;;11.32;8.70;;;;;;;;;;5045395;28;20269;-62
2023/07/14 01:19:43;;;;;;;12.45;9.05;;;;;;;;;;5044874;28;20199;-64
2023/07/14 01:22:12;;;;;;;16.65;8.82;;;;;;;;;;5045134;28;20330;-64
2023/07/14 01:24:41;;;;;;;13.43;8.90;;;;;;;;;;5045078;28;20286;-62
2023/07/14 01:27:09;;;;;;;11.80;8.57;;;;;;;;;;5045630;28;20203;-64
2023/07/14 01:29:37;;;;;;;17.65;8.68;;;;;;;;;;5047959;28;20226;-64
2023/07/14 01:32:10;;;;;;;10.10;9.13;;;;;;;;;;5049436;28;20294;-63
2023/07/14 01:34:37;;;;;;;23.83;9.55;;;;;;;;;;5049157;28;20288;-64
2023/07/14 01:37:03;;;;;;;15.18;9.95;;;;;;;;;;5049605;28;20650;-63
2023/07/14 01:39:30;;;;;;;15.98;9.52;;;;;;;;;;5048591;28;20210;-62
2023/07/14 01:41:56;;;;;;;13.52;9.82;;;;;;;;;;5049210;28;20260;-63
2023/07/14 01:44:24;;;;;;;11.75;9.82;;;;;;;;;;5048790;28;20306;-63
2023/07/14 01:46:51;;;;;;;19.48;9.80;;;;;;;;;;5048752;28;20195;-63
2023/07/14 01:49:30;;;;;;;10.80;9.05;;;;;;;;;;5048785;28;20219;-63
2023/07/14 01:51:58;;;;;;;16.10;9.77;;;;;;;;;;5048608;28;20254;-64
2023/07/14 01:54:27;;;;;;;9.80;8.45;;;;;;;;;;5048923;28;20261;-64
2023/07/14 01:56:56;;;;;;;14.52;9.57;;;;;;;;;;5048792;28;20265;-62
2023/07/14 01:59:28;;;;;;;9.80;8.82;;;;;;;;;;5049019;28;20198;-64
2023/07/14 02:01:56;;;;;;;9.77;8.82;;;;;;;;;;5047973;28;20206;-63
2023/07/14 02:04:25;;;;;;;10.57;9.48;;;;;;;;;;5048269;28;20227;-63
2023/07/14 02:06:51;;;;;;;14.30;8.85;;;;;;;;;;5048357;28;20257;-64
2023/07/14 02:09:19;;;;;;;12.00;9.10;;;;;;;;;;5048790;28;20754;-64
2023/07/14 02:11:48;;;;;;;9.55;8.38;;;;;;;;;;5047769;28;20207;-64
2023/07/14 02:14:17;;;;;;;11.60;8.98;;;;;;;;;;5048941;28;20283;-64
2023/07/14 02:16:45;;;;;;;12.50;8.93;;;;;;;;;;5048178;28;20211;-65
2023/07/14 02:19:15;;;;;;;9.07;8.05;;;;;;;;;;5048268;28;20290;-63
2023/07/14 02:21:42;;;;;;;10.57;8.52;;;;;;;;;;5047481;28;20825;-63
2023/07/14 02:24:12;;;;;;;11.27;8.43;;;;;;;;;;5048198;28;21360;-65
2023/07/14 02:26:40;;;;;;;11.13;8.60;;;;;;;;;;5047699;28;20203;-63
2023/07/14 02:29:10;;;;;;;11.02;8.05;;;;;;;;;;5048195;28;20356;-64
2023/07/14 02:31:39;;;;;;;11.55;8.40;;;;;;;;;;5047441;28;20227;-63
2023/07/14 02:34:10;;;;;;;10.63;8.13;;;;;;;;;;5048132;28;20256;-61
2023/07/14 02:36:42;;;;;;;13.10;7.72;;;;;;;;;;5047678;28;20294;-64
2023/07/14 02:39:08;;;;;;;10.00;7.82;;;;;;;;;;5047340;28;20582;-64
2023/07/14 02:41:37;;;;;;;14.48;7.72;;;;;;;;;;5047299;28;20234;-63
2023/07/14 02:44:04;;;;;;;10.95;7.57;;;;;;;;;;5048128;28;20196;-64
2023/07/14 02:46:38;;;;;;;12.18;7.88;;;;;;;;;;5047789;28;20360;-64
2023/07/14 02:49:04;;;;;;;11.57;7.22;;;;;;;;;;5047750;28;20199;-64
2023/07/14 02:51:32;;;;;;;12.00;8.18;;;;;;;;;;5047215;28;20311;-64
2023/07/14 02:53:58;;;;;;;8.50;7.45;;;;;;;;;;5047842;28;20247;-64
2023/07/14 02:56:25;;;;;;;9.65;7.45;;;;;;;;;;5047836;28;20900;-65
2023/07/14 02:58:52;;;;;;;11.88;8.32;;;;;;;;;;5047431;28;20226;-63
2023/07/14 03:01:19;;;;;;;13.98;7.65;;;;;;;;;;5048117;28;20192;-63
2023/07/14 03:03:46;;;;;;;8.82;8.10;;;;;;;;;;5048134;28;20199;-63
2023/07/14 03:06:14;;;;;;;9.35;8.32;;;;;;;;;;5047792;28;20233;-62
2023/07/14 03:08:42;;;;;;;10.05;7.70;;;;;;;;;;5047964;28;20292;-64
2023/07/14 03:11:09;;;;;;;20.33;12.43;;;;;;;;;;5047622;28;20700;-64
2023/07/14 03:13:36;;;;;;;21.30;15.27;;;;;;;;;;5047343;28;20203;-63
2023/07/14 03:16:03;;;;;;;12.35;10.32;;;;;;;;;;5047557;28;20209;-64
2023/07/14 03:18:29;;;;;;;13.65;8.73;;;;;;;;;;5047649;28;20203;-63
2023/07/14 03:20:56;;;;;;;9.15;7.55;;;;;;;;;;5047417;28;20235;-62
2023/07/14 03:23:23;;;;;;;8.27;6.90;;;;;;;;;;5047069;28;20213;-63
2023/07/14 03:25:54;;;;;;;15.10;7.28;;;;;;;;;;5048047;28;20231;-64
2023/07/14 03:28:21;;;;;;;7.85;7.13;;;;;;;;;;5047336;28;20673;-62
2023/07/14 03:30:48;;;;;;;11.05;6.97;;;;;;;;;;5047581;28;20317;-63
2023/07/14 03:33:14;;;;;;;12.20;7.80;;;;;;;;;;5046569;28;20203;-66
2023/07/14 03:35:41;;;;;;;9.10;7.80;;;;;;;;;;5047170;28;20204;-63
2023/07/14 03:38:07;;;;;;;8.82;7.25;;;;;;;;;;5047581;28;20203;-64
2023/07/14 03:40:34;;;;;;;11.30;7.20;;;;;;;;;;5046733;28;20257;-63
2023/07/14 03:43:03;;;;;;;10.55;7.70;;;;;;;;;;5046713;28;20665;-64
2023/07/14 03:45:29;;;;;;;10.15;7.32;;;;;;;;;;5046879;28;20199;-65
2023/07/14 03:47:56;;;;;;;9.07;7.65;;;;;;;;;;5047498;28;20195;-64
2023/07/14 03:50:22;;;;;;;12.98;8.05;;;;;;;;;;5046826;28;20250;-65
2023/07/14 03:52:49;;;;;;;7.68;6.88;;;;;;;;;;5046078;28;21058;-64
2023/07/14 03:55:15;;;;;;;15.15;7.93;;;;;;;;;;5046827;28;20253;-64
2023/07/14 03:57:42;;;;;;;14.15;8.55;;;;;;;;;;5046890;28;20276;-64
2023/07/14 04:00:14;;;;;;;9.43;8.55;;;;;;;;;;5046946;28;20226;-63
2023/07/14 04:02:41;;;;;;;11.05;8.43;;;;;;;;;;5046501;28;20203;-63
2023/07/14 04:05:08;;;;;;;9.35;8.38;;;;;;;;;;5046909;28;20203;-61
2023/07/14 04:07:34;;;;;;;16.35;9.02;;;;;;;;;;5046328;28;21804;-64
2023/07/14 04:10:02;;;;;;;16.42;8.65;;;;;;;;;;5046226;28;20261;-64
2023/07/14 04:12:28;;;;;;;12.40;8.43;;;;;;;;;;5046895;28;20206;-64
2023/07/14 04:14:55;;;;;;;12.77;7.93;;;;;;;;;;5046771;28;20602;-62
2023/07/14 04:17:23;;;;;;;15.52;8.38;;;;;;;;;;5046665;28;20227;-63
2023/07/14 04:19:49;;;;;;;13.73;8.77;;;;;;;;;;5046376;28;20202;-65
2023/07/14 04:22:16;;;;;;;12.32;8.32;;;;;;;;;;5046131;28;20247;-63
2023/07/14 04:24:42;;;;;;;10.60;8.25;;;;;;;;;;5045927;28;20207;-64
2023/07/14 04:27:09;;;;;;;16.90;11.02;;;;;;;;;;5046045;28;20757;-62
2023/07/14 04:29:35;;;;;;;18.23;9.48;;;;;;;;;;5046240;28;20203;-65
2023/07/14 04:32:02;;;;;;;9.13;8.18;;;;;;;;;;5045981;28;20215;-64
2023/07/14 04:34:30;;;;;;;9.05;8.25;;;;;;;;;;5045877;28;20618;-63
2023/07/14 04:36:56;;;;;;;11.75;7.80;;;;;;;;;;5046820;28;20205;-64
2023/07/14 04:39:24;;;;;;;15.50;8.27;;;;;;;;;;5045707;28;20203;-62
2023/07/14 04:41:51;;;;;;;15.32;9.32;;;;;;;;;;5046127;28;20195;-64
2023/07/14 04:44:17;;;;;;;24.15;13.85;;;;;;;;;;5045960;28;20211;-63
2023/07/14 04:46:45;;;;;;;32.30;24.55;;;;;;;;;;5046438;28;20296;-65
2023/07/14 04:49:11;;;;;;;18.20;13.43;;;;;;;;;;5046139;28;20207;-63
2023/07/14 04:51:40;;;;;;;14.25;10.43;;;;;;;;;;5045812;28;20314;-63
2023/07/14 04:54:06;;;;;;;12.25;8.77;;;;;;;;;;5046115;28;20327;-64
2023/07/14 04:56:33;;;;;;;12.02;9.02;;;;;;;;;;5046426;28;20215;-63
2023/07/14 04:59:00;;;;;;;10.75;8.23;;;;;;;;;;5045247;28;20268;-64
2023/07/14 05:01:27;;;;;;;13.98;8.63;;;;;;;;;;5045692;28;20231;-63
2023/07/14 05:03:54;;;;;;;10.75;9.20;;;;;;;;;;5049583;28;20260;-63
2023/07/14 05:06:20;;;;;;;16.13;9.10;;;;;;;;;;5050465;28;20202;-63
2023/07/14 05:08:48;;;;;;;17.38;10.35;;;;;;;;;;5049772;28;20234;-63
2023/07/14 05:11:14;;;;;;;18.92;12.60;;;;;;;;;;5049703;28;20313;-65
2023/07/14 05:13:41;;;;;;;16.88;12.93;;;;;;;;;;5049678;28;20746;-65
2023/07/14 05:16:07;;;;;;;17.65;10.68;;;;;;;;;;5049671;28;20218;-63
2023/07/14 05:18:34;;;;;;;15.23;9.15;;;;;;;;;;5048765;28;20217;-64
2023/07/14 05:21:03;;;;;;;11.85;9.38;;;;;;;;;;5049000;28;20782;-62
2023/07/14 05:23:29;;;;;;;13.05;8.43;;;;;;;;;;5049088;28;20203;-62
2023/07/14 05:25:57;;;;;;;13.27;8.75;;;;;;;;;;5049243;28;20222;-60
2023/07/14 05:28:24;;;;;;;11.35;8.50;;;;;;;;;;5049853;28;20208;-62
2023/07/14 05:30:50;;;;;;;12.73;8.75;;;;;;;;;;5049213;28;20786;-62
2023/07/14 05:33:17;;;;;;;9.65;7.97;;;;;;;;;;5049125;28;20684;-64
2023/07/14 05:35:45;;;;;;;11.20;8.00;;;;;;;;;;5049328;28;20704;-62
2023/07/14 05:38:11;;;;;;;9.60;7.13;;;;;;;;;;5049581;28;20207;-61
2023/07/14 05:40:37;;;;;;;12.57;7.20;;;;;;;;;;5049259;28;20214;-64
2023/07/14 05:43:06;;;;;;;9.50;7.03;;;;;;;;;;5049580;28;20230;-64
2023/07/14 05:45:32;;;;;;;11.63;7.53;;;;;;;;;;5048323;28;20207;-63
2023/07/14 05:47:58;;;;;;;8.18;7.20;;;;;;;;;;5048323;28;20231;-63
2023/07/14 05:50:25;;;;;;;13.63;7.68;;;;;;;;;;5049159;28;20612;-63
2023/07/14 05:52:51;;;;;;;9.65;6.20;;;;;;;;;;5049048;28;20221;-64
2023/07/14 05:55:18;;;;;;;10.73;8.18;;;;;;;;;;5049145;28;20298;-63
2023/07/14 05:57:44;;;;;;;11.43;7.35;;;;;;;;;;5047780;28;20199;-63
2023/07/14 06:00:16;;;;;;;8.98;7.35;;;;;;;;;;5048514;28;20264;-64
2023/07/14 06:02:43;;;;;;;14.90;6.97;;;;;;;;;;5048518;28;20210;-64
2023/07/14 06:05:10;;;;;;;12.57;7.88;;;;;;;;;;5048741;28;20268;-64
2023/07/14 06:07:36;;;;;;;13.95;7.60;;;;;;;;;;5047951;28;20234;-63
2023/07/14 06:10:03;;;;;;;7.65;7.07;;;;;;;;;;5048705;28;20730;-65
2023/07/14 06:12:30;;;;;;;19.00;7.68;;;;;;;;;;5047866;28;20203;-64
2023/07/14 06:14:57;;;;;;;11.63;8.10;;;;;;;;;;5047688;28;20234;-65
2023/07/14 06:17:24;;;;;;;14.93;7.10;;;;;;;;;;5048568;28;20226;-64
2023/07/14 06:19:51;;;;;;;13.70;8.55;;;;;;;;;;5048714;28;20207;-64
2023/07/14 06:22:20;;;;;;;9.30;7.85;;;;;;;;;;5048406;28;20262;-64
2023/07/14 06:24:48;;;;;;;8.93;8.05;;;;;;;;;;5048652;28;20194;-64
2023/07/14 06:27:14;;;;;;;13.75;8.15;;;;;;;;;;5048119;28;20203;-63
2023/07/14 06:29:41;;;;;;;13.30;9.05;;;;;;;;;;5048567;28;20218;-64
2023/07/14 06:32:08;;;;;;;11.43;8.20;;;;;;;;;;5048206;28;20222;-64
2023/07/14 06:34:35;;;;;;;9.18;8.23;;;;;;;;;;5048413;28;20239;-64
2023/07/14 06:37:02;;;;;;;9.93;7.57;;;;;;;;;;5048087;28;20195;-64
2023/07/14 06:39:28;;;;;;;12.43;7.95;;;;;;;;;;5047647;28;20206;-66
2023/07/14 06:41:55;;;;;;;11.77;8.20;;;;;;;;;;5048290;28;20760;-64
2023/07/14 06:44:21;;;;;;;10.15;7.53;;;;;;;;;;5048172;28;20909;-64
2023/07/14 06:46:48;;;;;;;11.77;8.73;;;;;;;;;;5048262;28;20268;-63
2023/07/14 06:49:14;;;;;;;10.30;8.63;;;;;;;;;;5047815;28;20211;-65
2023/07/14 06:51:42;;;;;;;9.98;8.15;;;;;;;;;;5048440;28;20274;-65
2023/07/14 06:54:08;;;;;;;8.07;7.25;;;;;;;;;;5047730;28;20661;-64
2023/07/14 06:56:36;;;;;;;10.38;7.78;;;;;;;;;;5047977;28;20758;-65
2023/07/14 06:59:02;;;;;;;18.02;7.78;;;;;;;;;;5046882;28;20247;-64
2023/07/14 07:01:29;;;;;;;11.77;7.50;;;;;;;;;;5048280;28;20195;-64
2023/07/14 07:03:55;;;;;;;8.15;7.00;;;;;;;;;;5047855;28;20195;-65
2023/07/14 07:06:22;;;;;;;9.77;7.47;;;;;;;;;;5047489;28;20257;-64
2023/07/14 07:08:50;;;;;;;10.13;7.43;;;;;;;;;;5046800;28;20203;-63
2023/07/14 07:11:16;;;;;;;8.15;7.32;;;;;;;;;;5047289;28;20253;-65
2023/07/14 07:13:43;;;;;;;12.68;7.85;;;;;;;;;;5047668;28;20332;-65
2023/07/14 07:16:09;;;;;;;9.00;7.10;;;;;;;;;;5047688;28;20230;-65
2023/07/14 07:18:35;;;;;;;9.90;8.60;;;;;;;;;;5046545;28;20493;-66
2023/07/14 07:21:02;;;;;;;8.55;6.82;;;;;;;;;;5047140;28;20297;-65
2023/07/14 07:23:28;;;;;;;13.93;7.75;;;;;;;;;;5046749;28;20222;-67
2023/07/14 07:25:56;;;;;;;13.95;9.40;;;;;;;;;;5046098;28;20718;-63
2023/07/14 07:28:23;;;;;;;7.82;7.13;;;;;;;;;;5047141;28;20661;-65
2023/07/14 07:30:50;;;;;;;37.38;10.50;;;;;;;;;;5047365;28;20234;-65
2023/07/14 07:33:17;;;;;;;14.55;7.05;;;;;;;;;;5047389;28;20198;-66
2023/07/14 07:35:43;;;;;;;7.95;7.22;;;;;;;;;;5047165;28;20195;-66
2023/07/14 07:38:11;;;;;;;9.40;6.90;;;;;;;;;;5046836;28;20719;-64
2023/07/14 07:40:37;;;;;;;9.38;6.28;;;;;;;;;;5046560;28;20708;-64
2023/07/14 07:43:05;;;;;;;10.02;7.07;;;;;;;;;;5046842;28;20199;-64
2023/07/14 07:45:31;;;;;;;16.55;7.38;;;;;;;;;;5046351;28;20203;-64
2023/07/14 07:47:58;;;;;;;14.43;6.72;;;;;;;;;;5047206;28;20253;-64
2023/07/14 07:50:26;;;;;;;10.07;6.90;;;;;;;;;;5046591;28;20215;-64
2023/07/14 07:52:52;;;;;;;14.10;6.63;;;;;;;;;;5046979;28;20235;-65
2023/07/14 07:55:19;;;;;;;10.45;6.47;;;;;;;;;;5046548;28;20223;-64
2023/07/14 07:57:47;;;;;;;7.75;6.18;;;;;;;;;;5046808;28;20199;-64
2023/07/14 08:00:15;;;;;;;7.25;6.70;;;;;;;;;;5045976;28;20203;-64
2023/07/14 08:02:42;;;;;;;6.90;6.35;;;;;;;;;;5047317;28;20758;-64
2023/07/14 08:05:09;;;;;;;8.27;7.07;;;;;;;;;;5046223;28;20649;-62
2023/07/14 08:07:35;;;;;;;7.47;6.88;;;;;;;;;;5045988;28;20206;-63
2023/07/14 08:10:03;;;;;;;8.70;6.72;;;;;;;;;;5046288;28;20229;-63
2023/07/14 08:12:29;;;;;;;6.22;5.82;;;;;;;;;;5046448;28;20291;-63
2023/07/14 08:14:56;;;;;;;13.93;6.40;;;;;;;;;;5045933;28;20210;-63
2023/07/14 08:17:25;;;;;;;10.85;6.20;;;;;;;;;;5045928;28;20213;-63
2023/07/14 08:19:51;;;;;;;10.65;6.55;;;;;;;;;;5045960;28;20258;-63
2023/07/14 08:22:18;;;;;;;7.68;6.10;;;;;;;;;;5046095;28;20287;-64
2023/07/14 08:24:44;;;;;;;13.23;7.90;;;;;;;;;;5046168;28;20202;-64
2023/07/14 08:27:11;;;;;;;64.97;57.03;;;;;;;;;;5045671;28;20711;-65
2023/07/14 08:29:37;;;;;;;37.55;33.47;;;;;;;;;;5045766;28;20668;-64
2023/07/14 08:32:04;;;;;;;28.00;20.30;;;;;;;;;;5046217;28;20305;-63
2023/07/14 08:34:32;;;;;;;9.98;7.57;;;;;;;;;;5046022;28;20202;-65
2023/07/14 08:36:59;;;;;;;12.70;8.93;;;;;;;;;;5045679;28;20605;-64
2023/07/14 08:39:26;;;;;;;8.63;7.70;;;;;;;;;;5045316;28;20238;-64
2023/07/14 08:41:54;;;;;;;8.57;7.75;;;;;;;;;;5046510;28;20321;-66
2023/07/14 08:44:41;;;;;;;9.27;7.70;;;;;;;;;;5045052;28;20667;-65
2023/07/14 08:47:10;;;;;;;8.00;7.32;;;;;;;;;;5045812;28;20289;-64
2023/07/14 08:49:44;;;;;;;11.05;8.10;;;;;;;;;;5045220;28;20209;-64
2023/07/14 08:52:16;;;;;;;25.17;22.63;;;;;;;;;;5045842;28;20341;-65
2023/07/14 08:54:45;;;;;;;15.52;11.10;;;;;;;;;;5045883;28;20202;-65
2023/07/14 08:57:14;;;;;;;10.07;9.15;;;;;;;;;;5045491;28;20268;-64
2023/07/14 08:59:41;;;;;;;9.25;7.70;;;;;;;;;;5046240;28;20198;-69
2023/07/14 09:02:15;;;;;;;9.20;7.57;;;;;;;;;;5045555;28;20194;-69
2023/07/14 09:04:45;;;;;;;9.27;8.35;;;;;;;;;;5044709;28;20252;-69
2023/07/14 09:07:15;;;;;;;9.32;7.95;;;;;;;;;;5045276;28;20260;-70
2023/07/14 09:09:41;;;;;;;12.57;8.05;;;;;;;;;;5046310;28;20238;-70
2023/07/14 09:12:15;;;;;;;10.45;6.97;;;;;;;;;;5046361;28;20222;-71
2023/07/14 09:14:47;;;;;;;8.55;7.63;;;;;;;;;;5046510;28;20644;-69
2023/07/14 09:17:18;;;;;;;7.32;6.65;;;;;;;;;;5045948;28;20198;-69
2023/07/14 09:19:51;;;;;;;8.10;7.35;;;;;;;;;;5045341;28;20676;-68
2023/07/14 09:22:21;;;;;;;8.75;7.43;;;;;;;;;;5044507;28;20222;-68
2023/07/14 09:24:52;;;;;;;8.60;7.65;;;;;;;;;;5044865;28;20222;-68
2023/07/14 09:27:21;;;;;;;8.73;7.93;;;;;;;;;;5043925;28;20285;-69
2023/07/14 09:29:48;;;;;;;11.63;6.88;;;;;;;;;;5044379;28;20227;-69
2023/07/14 09:32:20;;;;;;;7.82;6.93;;;;;;;;;;5044155;28;20304;-69
2023/07/14 09:34:52;;;;;;;9.70;7.05;;;;;;;;;;5044832;28;20289;-69
2023/07/14 09:37:20;;;;;;;12.23;7.32;;;;;;;;;;5045691;28;20205;-68
2023/07/14 09:39:47;;;;;;;8.23;7.47;;;;;;;;;;5046658;28;20234;-69
2023/07/14 09:42:18;;;;;;;10.20;7.97;;;;;;;;;;5046010;28;20364;-66
2023/07/14 09:44:45;;;;;;;9.23;7.32;;;;;;;;;;5046252;28;20230;-68
2023/07/14 09:47:11;;;;;;;11.80;7.75;;;;;;;;;;5045752;28;20238;-68
2023/07/14 09:49:39;;;;;;;7.07;6.22;;;;;;;;;;5047654;28;20207;-68
2023/07/14 09:52:14;;;;;;;10.60;7.72;;;;;;;;;;5049547;28;20304;-67
2023/07/14 09:54:50;;;;;;;11.20;7.75;;;;;;;;;;5049668;28;20719;-68
2023/07/14 09:57:18;;;;;;;12.30;8.63;;;;;;;;;;5049579;28;20199;-68
2023/07/14 09:59:51;;;;;;;10.80;7.95;;;;;;;;;;5049800;28;20256;-66
2023/07/14 10:02:18;;;;;;;10.15;8.00;;;;;;;;;;5049139;28;20235;-66
2023/07/14 10:04:49;;;;;;;11.90;7.78;;;;;;;37.20;nan;95271.63;5049551;28;20253;-67
2023/07/14 10:07:31;;;;;;;11.20;8.13;;;;;;;;;;5048833;28;20276;-67
2023/07/14 10:09:58;;;;;;;13.25;7.90;;;;;;;;;;5048751;28;20202;-66
2023/07/14 10:12:25;;;;;;;12.60;8.85;;;;;;;;;;5049323;28;20222;-67
2023/07/14 10:14:53;;;;;;;14.43;8.60;;;;;;;;;;5049268;28;20635;-67
2023/07/14 10:17:23;;;;;;;8.13;7.40;;;;;;;;;;5049402;28;20286;-67
2023/07/14 10:19:50;;;;;;;16.25;8.52;;;;;;;;;;5048965;28;20260;-67
2023/07/14 10:22:19;;;;;;;13.52;8.25;;;;;;;;;;5048966;28;20263;-68
2023/07/14 10:24:48;;;;;;;9.30;8.52;;;;;;;;;;5048524;28;20692;-66
2023/07/14 10:27:16;;;;;;;15.43;8.95;;;;;;;;;;5048927;28;20231;-68
2023/07/14 10:29:46;;;;;;;15.05;8.98;;;;;;;;;;5048555;28;20203;-69
2023/07/14 10:32:18;;;;;;;11.90;8.63;;;;;;;;;;5049255;28;20730;-67
2023/07/14 10:34:50;;;;;;;13.40;8.27;;;;;;;;;;5048166;28;20896;-69
2023/07/14 10:37:19;;;;;;;11.10;7.65;;;;;;;;;;5048905;28;20209;-69
2023/07/14 10:39:51;;;;;;;14.10;7.82;;;;;;;;;;5048497;28;20650;-68
2023/07/14 10:42:21;;;;;;;9.10;8.10;;;;;;;;;;5047901;28;20199;-68
2023/07/14 10:44:47;;;;;;;9.57;8.05;;;;;;;;;;5047585;28;20758;-66
2023/07/14 10:47:17;;;;;;;15.82;8.68;;;;;;;;;;5048306;28;20203;-67
2023/07/14 10:49:44;;;;;;;13.90;8.10;;;;;;;;;;5048814;28;20239;-67
2023/07/14 10:52:12;;;;;;;14.05;8.00;;;;;;;;;;5048381;28;20226;-66
2023/07/14 10:54:44;;;;;;;11.65;8.50;;;;;;;;;;5048419;28;20732;-67
2023/07/14 10:57:15;;;;;;;11.85;8.00;;;;;;;;;;5047304;28;20272;-67
2023/07/14 10:59:43;;;;;;;9.07;7.80;;;;;;;;;;5048449;28;20253;-67
2023/07/14 11:02:17;;;;;;;8.70;7.85;;;;;;;;;;5048125;28;20199;-67
2023/07/14 11:04:46;;;;;;;13.75;9.48;;;;;;;;;;5048349;28;20688;-68
2023/07/14 11:07:16;;;;;;;15.70;8.68;;;;;;;;;;5048201;28;20211;-69
2023/07/14 11:09:43;;;;;;;9.40;8.50;;;;;;;;;;5048178;28;20227;-68
2023/07/14 11:12:12;;;;;;;9.52;8.48;;;;;;;;;;5048229;28;20357;-68
2023/07/14 11:14:45;;;;;;;12.05;8.30;;;;;;;;;;5048056;28;20250;-66
2023/07/14 11:17:16;;;;;;;10.18;7.88;;;;;;;;;;5047189;28;20211;-66
2023/07/14 11:19:47;;;;;;;10.63;8.90;;;;;;;;;;5047565;28;20606;-67
2023/07/14 11:22:16;;;;;;;15.65;8.60;;;;;;;;;;5047710;28;20259;-69
2023/07/14 11:24:48;;;;;;;10.10;8.75;;;;;;;;;;5047861;28;21558;-70
2023/07/14 11:27:23;;;;;;;12.73;8.40;;;;;;;;;;5048242;28;20214;-69
2023/07/14 11:29:54;;;;;;;12.07;8.48;;;;;;;;;;5047245;28;20551;-69
2023/07/14 11:32:22;;;;;;;11.05;8.20;;;;;;;;;;5048398;28;20215;-70
2023/07/14 11:34:55;;;;;;;15.27;8.52;;;;;;;;;;5047593;28;20235;-69
2023/07/14 11:37:32;;;;;;;18.10;8.85;;;;;;;;;;5047673;28;20195;-68
2023/07/14 11:39:59;;;;;;;14.05;8.18;;;;;;;;;;5046973;28;20234;-68
2023/07/14 11:42:26;;;;;;;17.33;8.45;;;;;;;;;;5047240;28;20288;-68
2023/07/14 11:44:55;;;;;;;12.13;8.20;;;;;;;;;;5047951;28;20230;-68
2023/07/14 11:47:24;;;;;;;15.38;7.70;;;;;;;;;;5047550;28;20253;-70
2023/07/14 11:49:55;;;;;;;9.90;7.65;;;;;;;;;;5047908;28;20226;-69
2023/07/14 11:52:22;;;;;;;14.23;8.40;;;;;;;;;;5047695;28;20320;-69
2023/07/14 11:54:56;;;;;;;10.18;8.60;;;;;;;;;;5047143;28;20234;-67
2023/07/14 11:57:23;;;;;;;8.35;7.55;;;;;;;;;;5046900;28;20818;-69
2023/07/14 11:59:58;;;;;;;10.07;8.15;;;;;;;;;;5047608;28;20654;-68
2023/07/14 12:02:30;;;;;;;17.80;9.10;;;;;;;;;;5047243;28;20233;-70
2023/07/14 12:05:01;;;;;;;14.82;8.85;;;;;;;;;;5046852;28;20270;-68
2023/07/14 12:07:27;;;;;;;11.45;7.97;;;;;;;;;;5047005;28;20199;-66
2023/07/14 12:09:58;;;;;;;9.00;7.65;;;;;;;;;;5047240;28;20664;-67
2023/07/14 12:12:25;;;;;;;13.80;8.70;;;;;;;;;;5045700;28;20734;-67
2023/07/14 12:14:51;;;;;;;12.93;8.20;;;;;;;;;;5047080;28;20238;-68
2023/07/14 12:17:36;;;;;;;10.23;8.18;;;;;;;;;;5047085;28;20261;-66
2023/07/14 12:20:16;;;;;;;11.10;7.32;;;;;;;;;;5046699;28;20262;-68
2023/07/14 12:22:44;;;;;;;8.02;7.30;;;;;;;;;;5046615;28;20195;-68
2023/07/14 12:25:11;;;;;;;14.50;9.02;;;;;;;;;;5047359;28;20195;-67
2023/07/14 12:27:39;;;;;;;13.88;8.38;;;;;;;;;;5046406;28;20238;-67
2023/07/14 12:30:11;;;;;;;9.70;7.57;;;;;;;;;;5047049;28;20234;-67
2023/07/14 12:32:37;;;;;;;11.75;8.43;;;;;;;;;;5046457;28;20223;-70
2023/07/14 12:35:11;;;;;;;21.88;9.07;;;;;;;;;;5047072;28;20203;-68
2023/07/14 12:37:38;;;;;;;9.23;8.15;;;;;;;;;;5046371;28;20244;-70
2023/07/14 12:40:07;;;;;;;10.90;8.07;;;;;;;;;;5046659;28;20227;-67
2023/07/14 12:42:33;;;;;;;16.83;8.57;;;;;;;;;;5045979;28;21019;-68
2023/07/14 12:45:00;;;;;;;9.07;7.78;;;;;;;;;;5047216;28;20207;-68
2023/07/14 12:47:27;;;;;;;15.25;9.70;;;;;;;;;;5046815;28;20278;-69
2023/07/14 12:49:54;;;;;;;11.60;8.90;;;;;;;;;;5047178;28;20203;-68
2023/07/14 12:52:27;;;;;;;10.30;7.72;;;;;;;;;;5046332;28;20258;-68
2023/07/14 12:54:57;;;;;;;16.17;8.80;;;;;;;;;;5046769;28;20641;-67
2023/07/14 12:57:23;;;;;;;17.48;8.57;;;;;;;;;;5046171;28;20260;-67
2023/07/14 12:59:50;;;;;;;10.90;7.93;;;;;;;;;;5047157;28;20296;-67
2023/07/14 13:02:17;;;;;;;17.55;8.63;;;;;;;;;;5046384;28;20203;-67
2023/07/14 13:04:43;;;;;;;15.90;8.88;;;;;;;;;;5044607;28;20257;-67
2023/07/14 13:07:13;;;;;;;15.60;9.23;;;;;;;;;;5044800;28;20249;-67
2023/07/14 13:09:40;;;;;;;12.75;8.23;;;;;;;;;;5044736;28;20677;-67
2023/07/14 13:12:09;;;;;;;13.00;9.02;;;;;;;;;;5044432;28;20195;-67
2023/07/14 13:14:36;;;;;;;11.25;8.15;;;;;;;;;;5045003;28;20219;-67
2023/07/14 13:17:04;;;;;;;12.45;9.18;;;;;;;;;;5044816;28;20257;-66
2023/07/14 13:19:33;;;;;;;8.73;7.80;;;;;;;;;;5045490;28;20285;-68
2023/07/14 13:22:01;;;;;;;10.57;8.50;;;;;;;;;;5045297;28;20331;-69
2023/07/14 13:24:29;;;;;;;13.95;7.97;;;;;;;;;;5048718;28;20252;-68
2023/07/14 13:26:57;;;;;;;10.20;7.95;;;;;;;;;;5050185;28;20708;-68
2023/07/14 13:29:25;;;;;;;13.48;9.07;;;;;;;;;;5050137;28;20226;-66
2023/07/14 13:31:53;;;;;;;17.52;8.85;;;;;;;;;;5050171;28;20870;-69
2023/07/14 13:34:21;;;;;;;12.40;9.73;;;;;;;;;;5050199;28;20473;-69
2023/07/14 13:36:48;;;;;;;18.55;8.68;;;;;;;;;;5050147;28;20285;-68
2023/07/14 13:39:20;;;;;;;13.18;9.68;;;;;;;;;;5049501;28;20205;-68
2023/07/14 13:41:47;;;;;;;13.73;9.55;;;;;;;;;;5050080;28;20199;-68
2023/07/14 13:44:44;;;;;;;9.95;8.95;;;;;;;;;;5049681;28;20689;-69
2023/07/14 13:47:18;;;;;;;13.95;8.93;;;;;;;;;;5027164;28;20226;-66
2023/07/14 13:49:45;;;;;;;13.00;9.65;;;;;;;;;;5045751;28;20195;-66
2023/07/14 13:52:13;;;;;;;13.50;9.73;;;;;;;;;;5049793;28;20221;-67
2023/07/14 13:54:40;;;;;;;16.70;9.60;;;;;;;;;;5049948;28;20277;-69
2023/07/14 13:57:09;;;;;;;13.10;8.68;;;;;;;;;;5049552;28;21235;-66
2023/07/14 13:59:36;;;;;;;12.35;9.65;;;;;;;;;;5049956;28;20264;-68
2023/07/14 14:02:04;;;;;;;14.85;9.57;;;;;;;;;;5049348;28;20265;-69
2023/07/14 14:04:32;;;;;;;16.23;10.38;;;;;;;;;;5050001;28;20630;-67
2023/07/14 14:06:59;;;;;;;17.25;10.18;;;;;;;;;;5049274;28;20203;-69
2023/07/14 14:09:25;;;;;;;14.98;9.95;;;;;;;;;;5049342;28;20750;-65
2023/07/14 14:11:51;;;;;;;14.05;9.60;;;;;;;;;;5049495;28;20584;-65
2023/07/14 14:14:20;;;;;;;13.48;9.13;;;;;;;;;;5049671;28;20247;-67
2023/07/14 14:16:47;;;;;;;19.92;10.95;;;;;;;;;;5048921;28;20205;-66
2023/07/14 14:19:17;;;;;;;15.43;10.55;;;;;;;;;;5049898;28;20616;-67
2023/07/14 14:21:45;;;;;;;18.83;10.50;;;;;;;;;;5049011;28;20258;-66
2023/07/14 14:24:12;;;;;;;16.10;10.43;;;;;;;;;;5049276;28;20653;-67
2023/07/14 14:26:38;;;;;;;15.05;9.23;;;;;;;;;;5048688;28;20246;-67
2023/07/14 14:29:05;;;;;;;15.55;10.25;;;;;;;;;;5049255;28;20226;-67
2023/07/14 14:31:32;;;;;;;15.45;10.43;;;;;;;;;;5048812;28;20665;-66
2023/07/14 14:33:58;;;;;;;14.93;9.10;;;;;;;;;;5049279;28;20738;-67
2023/07/14 14:36:25;;;;;;;14.13;9.55;;;;;;;;;;5047454;28;20223;-67